Vercheres, Canada
Current Conditions -  °F | °C
As of 4:00 PM on Thursday 18 Dec 2014 (Local Time) from CYHU Reporting Station
Overcast Overcast  
Wind Chill: 26°   Ceiling: 2000
Heat Index: 32°   Visibility: 9mi
Dew Point: 27°   Wind: 7mph
Humidity: 80%   Direction: 350°N
Pressure: 29.89"   Gusts: NA
Location:  45.77°N, 73.35°W
Report Text: CYHU 182100Z AUTO 35006KT 9SM BKN020 BKN025 OVC030 00/M03 A2989 RMK SLP122
Loading
Personal Weather Stations






























Interactive Weather Map New forecast layout! Learn more

10-Day Weather Forecast

Advertisements
Track Severe Weather on mobile